Latest Weather Observations for Cape Bruny AWS

IDT60901

Issued at 8:51 am EDT Wednesday 23 October 2019 (issued every 10 minutes, with the page automatically refreshed every 10 minutes)

About weather observations | Map of Hobart area stations | Latest observations for Hobart area | Other Formats
Station Details ID: 094198 Name: CAPE BRUNY (CAPE BRUNY) Lat: -43.49 Lon: 147.14 Height: 59.7 m
Data from the previous 72 hours. | See also: Recent months at Cape Bruny AWS
Date/Time
EDT
Temp
°C
App
Temp
°C
Dew
Point
°C
Rel
Hum
%
Delta-T
°C
Wind Press
QNH
hPa
Press
MSL
hPa
Rain since
9am
mm
Dir  Spd
km/h
Gust
km/h
Spd
kts
Gust
kts
23/08:30am 13.3 11.0 7.5 68 2.8 ESE 9 13 5 7 1017.4 1017.5 0.0
23/08:00am 13.3 9.8 1.0 43 5.2 WNW 9 19 5 10 1017.2 1017.3 0.0
23/07:30am 12.4 8.4 2.6 51 4.3 WNW 13 19 7 10 1016.7 1016.8 0.0
23/07:00am 10.4 8.7 7.5 82 1.4 ESE 6 7 3 4 1016.8 1016.9 0.0
23/06:30am 10.3 8.6 7.4 82 1.4 E 6 7 3 4 1016.8 1016.9 0.0
23/06:00am 10.7 8.5 7.9 83 1.4 E 9 13 5 7 1016.6 1016.7 0.0
23/05:30am 10.9 9.1 8.1 83 1.4 ENE 7 15 4 8 1016.6 1016.7 0.0
23/05:00am 11.3 8.4 8.2 81 1.5 SE 13 17 7 9 1016.3 1016.4 0.0
23/04:30am 11.7 8.2 8.6 81 1.5 S 17 22 9 12 1016.8 1016.9 0.0
23/04:00am 12.7 9.5 7.0 68 2.7 WSW 13 17 7 9 1016.8 1016.9 0.0
23/03:30am 13.3 8.9 2.8 49 4.7 NW 15 20 8 11 1016.9 1017.0 0.0
23/03:00am 11.6 6.3 6.7 72 2.3 N 24 30 13 16 1016.4 1016.5 0.0
23/02:30am 11.0 4.8 7.9 81 1.5 N 30 35 16 19 1016.4 1016.5 0.0
23/02:00am 10.7 5.1 8.8 88 0.9 N 28 39 15 21 1016.7 1016.8 0.0
23/01:30am 10.5 5.3 8.8 89 0.8 N 26 33 14 18 1017.9 1018.0 0.0
23/01:00am 10.0 5.4 8.3 89 0.8 N 22 30 12 16 1018.7 1018.8 0.0
23/12:30am 9.5 5.4 7.8 89 0.8 N 19 22 10 12 1019.4 1019.4 0.0
23/12:00am 9.4 5.6 7.5 88 0.9 N 17 20 9 11 1019.5 1019.5 0.0
 
Date/Time
EDT
Temp
°C
App
Temp
°C
Dew
Point
°C
Rel
Hum
%
Delta-T
°C
Wind Press
QNH
hPa
Press
MSL
hPa
Rain since
9am
mm
Dir  Spd
km/h
Gust
km/h
Spd
kts
Gust
kts
22/11:30pm 8.9 8.1 6.7 86 1.0 CALM 0 4 0 2 1020.1 1020.1 0.0
22/11:00pm 9.1 6.6 6.7 85 1.1 WNW 9 9 5 5 1020.5 1020.5 0.0
22/10:30pm 9.4 7.0 7.2 86 1.0 WNW 9 13 5 7 1020.4 1020.4 0.0
22/10:00pm 9.2 6.8 6.8 85 1.1 NW 9 13 5 7 1020.3 1020.3 0.0
22/09:30pm 9.4 7.0 6.8 84 1.2 N 9 11 5 6 1020.1 1020.1 0.0
22/09:00pm 10.1 7.7 7.2 82 1.4 E 9 13 5 7 1020.5 1020.5 0.0
22/08:30pm 10.3 6.8 7.4 82 1.4 ESE 15 17 8 9 1020.6 1020.6 0.0
22/08:00pm 10.3 6.8 7.2 81 1.5 SE 15 20 8 11 1020.7 1020.7 0.0
22/07:30pm 10.5 6.2 7.0 79 1.7 SE 19 24 10 13 1020.7 1020.7 0.0
22/07:00pm 11.1 6.8 7.0 76 1.9 ESE 19 26 10 14 1020.7 1020.7 0.0
22/06:30pm 11.7 7.3 7.4 75 2.1 ESE 20 28 11 15 1020.8 1020.8 0.0
22/06:00pm 12.2 7.8 7.3 72 2.4 SE 20 28 11 15 1020.9 1020.9 0.0
22/05:30pm 12.8 9.0 7.5 70 2.6 SSE 17 24 9 13 1021.1 1021.1 0.0
22/05:00pm 12.4 6.8 7.3 71 2.5 S 26 35 14 19 1021.1 1021.1 0.0
22/04:30pm 13.0 7.1 7.7 70 2.6 S 28 35 15 19 1021.3 1021.3 0.0
22/04:00pm 13.2 7.6 7.2 67 2.9 S 26 33 14 18 1021.2 1021.2 0.0
22/03:30pm 13.7 9.3 7.2 65 3.2 S 20 30 11 16 1021.0 1021.0 0.0
22/03:00pm 14.7 10.4 8.0 64 3.3 S 20 26 11 14 1021.2 1021.2 0.0
22/02:30pm 14.9 10.6 7.2 60 3.8 S 19 26 10 14 1021.5 1021.5 0.0
22/02:00pm 15.0 11.6 7.5 61 3.7 SSE 15 26 8 14 1021.9 1021.9 0.0
22/01:30pm 14.8 11.3 7.4 61 3.7 SSE 15 26 8 14 1022.0 1022.0 0.0
22/01:00pm 14.2 10.4 7.7 65 3.2 S 17 24 9 13 1022.4 1022.4 0.0
22/12:30pm 15.1 11.0 6.4 56 4.2 SE 17 20 9 11 1022.5 1022.5 0.0
22/12:00pm 15.2 11.8 5.7 53 4.5 W 13 19 7 10 1023.2 1023.2 0.0
22/11:30am 14.6 11.6 5.9 56 4.2 N 11 19 6 10 1023.3 1023.3 0.0
22/11:00am 14.8 11.5 6.6 58 4.0 N 13 24 7 13 1023.5 1023.5 0.0
22/10:30am 12.8 10.2 6.2 64 3.1 NW 9 17 5 9 1024.0 1024.0 0.0
22/10:00am 12.2 9.2 5.8 65 3.0 WNW 11 24 6 13 1024.2 1024.2 0.0
22/09:30am 12.5 10.0 6.5 67 2.9 NNE 9 15 5 8 1024.2 1024.2 0.0
22/09:00am 11.5 9.0 6.4 71 2.4 NE 9 13 5 7 1024.4 1024.4 0.0
22/08:30am 10.6 8.5 5.6 71 2.3 N 6 9 3 5 1024.5 1024.5 0.0
22/08:00am 10.6 8.0 6.2 74 2.0 S 9 13 5 7 1024.5 1024.5 0.0
22/07:30am 10.7 8.6 6.8 77 1.8 W 7 9 4 5 1024.1 1024.1 0.0
22/07:00am 9.2 6.2 5.9 80 1.5 WSW 11 17 6 9 1023.7 1023.7 0.0
22/06:30am 9.1 5.3 5.8 80 1.5 WSW 15 22 8 12 1023.5 1023.5 0.0
22/06:00am 9.4 3.9 6.1 80 1.5 WSW 24 32 13 17 1023.2 1023.2 0.0
22/05:30am 9.4 3.1 5.9 79 1.6 WSW 28 35 15 19 1023.0 1023.0 0.0
22/05:00am 9.4 3.2 6.3 81 1.4 WSW 28 35 15 19 1022.9 1022.9 0.0
22/04:30am 9.5 2.5 6.0 79 1.6 WSW 32 41 17 22 1022.9 1022.9 0.0
22/04:00am 9.2 4.2 6.3 82 1.3 WSW 22 30 12 16 1022.9 1022.9 0.0
22/03:30am 9.3 3.2 6.6 83 1.3 WSW 28 35 15 19 1022.7 1022.7 0.0
22/03:00am 9.4 3.3 6.5 82 1.3 WSW 28 35 15 19 1022.5 1022.5 0.0
22/02:30am 9.6 2.7 6.5 81 1.4 WSW 32 50 17 27 1022.7 1022.7 0.0
22/02:26am 9.4 2.3 6.5 82 1.4 WSW 33 50 18 27 1022.7 1022.7 0.0
22/02:00am 9.6 4.3 6.9 83 1.3 WSW 24 32 13 17 1022.9 1022.9 0.0
22/01:30am 10.0 3.9 6.7 80 1.6 WSW 28 43 15 23 1023.1 1023.1 0.0
22/01:00am 10.1 3.7 7.0 81 1.5 WSW 30 37 16 20 1023.1 1023.1 0.0
22/12:30am 9.7 3.6 6.6 81 1.5 WSW 28 37 15 20 1023.0 1023.0 0.0
22/12:00am 9.9 4.9 6.6 80 1.5 WSW 22 33 12 18 1023.2 1023.2 0.0
 
Date/Time
EDT
Temp
°C
App
Temp
°C
Dew
Point
°C
Rel
Hum
%
Delta-T
°C
Wind Press
QNH
hPa
Press
MSL
hPa
Rain since
9am
mm
Dir  Spd
km/h
Gust
km/h
Spd
kts
Gust
kts
21/11:30pm 9.9 5.0 6.8 81 1.5 WSW 22 32 12 17 1023.2 1023.2 0.0
21/11:00pm 9.3 6.3 5.9 79 1.6 WSW 11 17 6 9 1023.1 1023.1 0.0
21/10:30pm 10.0 6.3 6.2 77 1.8 WSW 15 22 8 12 1023.1 1023.1 0.0
21/10:00pm 10.4 6.1 6.9 79 1.6 WSW 19 24 10 13 1023.2 1023.2 0.0
21/09:30pm 10.3 5.4 7.0 80 1.6 WSW 22 30 12 16 1022.9 1022.9 0.0
21/09:00pm 10.8 5.0 6.2 73 2.1 W 26 39 14 21 1022.8 1022.8 0.0
21/08:30pm 10.8 6.7 6.2 73 2.2 WNW 17 24 9 13 1022.7 1022.7 0.0
21/08:00pm 11.0 6.5 6.9 76 1.9 W 20 30 11 16 1022.3 1022.3 0.0
21/07:30pm 11.8 3.4 5.7 66 2.8 W 39 48 21 26 1022.0 1022.0 0.0
21/07:09pm 11.7 5.5 6.2 69 2.6 W 28 46 15 25 1021.9 1021.9 0.0
21/07:00pm 12.3 5.6 7.4 72 2.4 W 32 41 17 22 1021.9 1021.9 0.0
21/06:30pm 12.3 5.2 8.0 75 2.1 WSW 35 46 19 25 1021.6 1021.6 0.0
21/06:00pm 12.8 5.6 7.5 70 2.6 WSW 35 48 19 26 1021.3 1021.3 0.0
21/05:30pm 13.2 6.6 8.7 74 2.3 SW 33 46 18 25 1021.1 1021.1 0.0
21/05:00pm 13.9 7.5 8.5 70 2.7 SW 32 43 17 23 1020.9 1020.9 0.0
21/04:30pm 14.6 8.6 8.5 67 3.1 SW 30 39 16 21 1020.9 1020.9 0.0
21/04:00pm 14.5 8.8 8.5 67 3.0 SW 28 41 15 22 1020.9 1020.9 0.0
21/03:30pm 15.3 9.4 9.0 66 3.2 SW 30 43 16 23 1020.9 1020.9 0.0
21/03:00pm 14.8 8.8 8.7 67 3.1 SW 30 39 16 21 1021.1 1021.1 0.0
21/02:30pm 14.1 8.0 8.1 67 3.0 SW 30 41 16 22 1021.3 1021.3 0.0
21/02:00pm 17.7 14.2 8.8 56 4.6 W 17 24 9 13 1021.2 1021.2 0.0
21/01:30pm 16.5 12.5 8.2 58 4.2 WSW 19 28 10 15 1021.2 1021.2 0.0
21/01:00pm 16.3 11.1 9.0 62 3.8 WSW 26 35 14 19 1021.3 1021.3 0.0
21/12:30pm 15.6 10.2 8.1 61 3.8 WSW 26 33 14 18 1021.4 1021.4 0.0
21/12:00pm 16.4 13.4 7.9 57 4.3 W 13 19 7 10 1021.6 1021.6 0.0
21/11:30am 15.3 11.3 8.3 63 3.5 WSW 19 26 10 14 1021.8 1021.8 0.0
21/11:00am 14.6 10.4 8.1 65 3.2 WSW 20 30 11 16 1022.0 1022.0 0.0
21/10:30am 13.8 8.8 8.2 69 2.8 WSW 24 32 13 17 1021.9 1021.9 0.0
21/10:00am 13.6 9.0 8.2 70 2.7 WSW 22 32 12 17 1022.1 1022.1 0.0
21/09:30am 14.0 10.8 6.8 62 3.5 W 13 17 7 9 1021.9 1021.9 0.0
21/09:00am 13.0 9.1 7.0 67 2.9 WSW 17 24 9 13 1021.7 1021.7 0.0
21/08:30am 12.6 9.9 5.8 63 3.2 W 9 17 5 9 1021.6 1021.6 0.0
21/08:00am 12.1 8.9 7.0 71 2.4 W 13 22 7 12 1021.3 1021.3 0.0
21/07:30am 10.8 7.9 6.4 74 2.1 W 11 15 6 8 1020.9 1020.9 0.0
21/07:00am 10.4 7.1 6.4 76 1.9 WSW 13 19 7 10 1020.8 1020.8 0.0
21/06:30am 9.9 5.8 6.3 78 1.7 WSW 17 26 9 14 1020.3 1020.3 0.0
21/06:00am 9.6 6.5 5.6 76 1.8 SW 11 15 6 8 1020.0 1020.0 0.0
21/05:30am 10.6 5.1 6.0 73 2.1 W 24 37 13 20 1019.9 1019.9 0.0
21/05:00am 10.9 2.3 6.6 75 2.0 W 41 52 22 28 1019.4 1019.4 0.0
21/04:30am 10.9 3.1 6.6 75 2.0 W 37 50 20 27 1019.2 1019.2 0.0
21/04:00am 10.8 3.0 6.6 75 2.0 W 37 44 20 24 1019.0 1019.1 0.0
21/03:30am 10.9 2.6 6.3 73 2.2 WNW 39 52 21 28 1018.8 1018.9 0.0
21/03:00am 10.8 3.3 6.4 74 2.1 WNW 35 43 19 23 1019.0 1019.1 0.0
21/02:30am 10.9 1.3 6.3 73 2.2 WNW 46 61 25 33 1018.6 1018.7 0.0
21/02:00am 10.9 2.2 6.1 72 2.2 WNW 41 50 22 27 1018.8 1018.9 0.0
21/01:30am 10.9 2.8 7.0 77 1.9 WNW 39 50 21 27 1018.8 1018.9 0.0
21/01:01am 10.8 4.8 7.1 78 1.8 W 28 46 15 25 1018.7 1018.8 0.0
21/01:00am 10.8 5.2 7.1 78 1.8 W 26 46 14 25 1018.7 1018.8 0.0
21/12:30am 10.3 5.4 7.0 80 1.6 W 22 33 12 18 1018.7 1018.8 0.0
21/12:00am 9.4 6.8 6.3 81 1.4 SW 9 15 5 8 1019.0 1019.1 0.0
 
Date/Time
EDT
Temp
°C
App
Temp
°C
Dew
Point
°C
Rel
Hum
%
Delta-T
°C
Wind Press
QNH
hPa
Press
MSL
hPa
Rain since
9am
mm
Dir  Spd
km/h
Gust
km/h
Spd
kts
Gust
kts
20/11:30pm 10.1 6.5 6.8 80 1.6 WSW 15 22 8 12 1018.9 1019.0 0.0
20/11:00pm 10.3 4.7 7.0 80 1.6 WSW 26 37 14 20 1018.8 1018.9 0.0
20/10:30pm 10.5 4.0 6.5 76 1.9 WSW 30 43 16 23 1018.6 1018.7 0.0
20/10:00pm 10.6 1.7 6.7 77 1.8 WSW 43 56 23 30 1018.4 1018.5 0.0
20/09:30pm 10.9 1.7 6.5 74 2.1 WSW 44 57 24 31 1018.2 1018.3 0.0
20/09:00pm 10.4 -0.2 7.1 80 1.6 WSW 52 72 28 39 1017.6 1017.7 0.0
20/08:50pm 10.6 1.4 7.8 83 1.4 WSW 46 65 25 35 1017.6 1017.7 0.0
20/08:30pm 10.6 1.4 7.8 83 1.4 WSW 46 63 25 34 1017.1 1017.2 0.0
20/08:17pm 10.7 1.5 7.8 82 1.4 WSW 46 67 25 36 1016.9 1017.0 0.0
20/08:00pm 11.1 3.1 7.6 79 1.7 WSW 39 52 21 28 1016.7 1016.8 0.0
20/07:52pm 11.1 1.8 7.6 79 1.7 WSW 46 65 25 35 1016.4 1016.5 0.0
20/07:30pm 11.4 1.7 7.7 78 1.8 WSW 48 59 26 32 1016.1 1016.2 0.0
20/07:00pm 11.8 3.1 7.9 77 1.9 WSW 43 57 23 31 1015.6 1015.7 0.0
20/06:30pm 12.6 2.6 7.9 73 2.3 WSW 50 63 27 34 1015.0 1015.1 0.0
20/06:17pm 12.5 3.2 7.6 72 2.4 WSW 46 65 25 35 1014.9 1015.0 0.0
20/06:00pm 12.6 3.4 7.9 73 2.3 WSW 46 57 25 31 1014.7 1014.8 0.0
20/05:30pm 13.4 3.8 8.0 70 2.7 WSW 48 59 26 32 1014.3 1014.4 0.0
20/05:16pm 13.5 5.3 8.1 70 2.7 W 41 59 22 32 1014.0 1014.1 0.0
20/05:00pm 13.9 5.3 8.9 72 2.5 WSW 44 57 24 31 1014.0 1014.1 0.0
20/04:30pm 13.7 4.8 7.7 67 3.0 W 44 59 24 32 1013.5 1013.5 0.0
20/04:20pm 14.2 5.2 8.8 70 2.7 WSW 46 65 25 35 1013.5 1013.5 0.0
20/04:00pm 13.6 3.7 8.2 70 2.7 WSW 50 67 27 36 1013.2 1013.2 0.0
20/03:31pm 12.9 2.3 8.4 74 2.2 WSW 54 72 29 39 1012.9 1012.9 0.0
20/03:30pm 13.0 2.4 8.3 73 2.3 WSW 54 65 29 35 1012.9 1012.9 0.0
20/03:03pm 13.7 2.7 8.3 70 2.7 WSW 56 74 30 40 1012.6 1012.6 0.0
20/03:00pm 13.8 2.6 8.4 70 2.7 WSW 57 74 31 40 1012.6 1012.6 0.0
20/02:30pm 13.3 1.4 8.6 73 2.4 WSW 61 76 33 41 1012.4 1012.4 0.0
20/02:00pm 13.2 1.3 8.7 74 2.3 WSW 61 82 33 44 1012.1 1012.1 0.0
20/01:57pm 13.0 1.5 8.5 74 2.2 WSW 59 78 32 42 1012.1 1012.1 0.0
20/01:30pm 13.4 2.3 8.7 73 2.4 WSW 57 72 31 39 1011.7 1011.7 0.0
20/01:00pm 12.9 2.4 9.0 77 2.0 WSW 54 67 29 36 1011.6 1011.6 0.0
20/12:50pm 13.0 1.9 8.7 75 2.2 WSW 57 76 31 41 1011.4 1011.4 0.0
20/12:30pm 13.5 2.6 9.0 74 2.3 WSW 56 67 30 36 1011.3 1011.3 0.0
20/12:14pm 13.0 2.2 9.1 77 2.0 WSW 56 74 30 40 1011.3 1011.3 0.0
20/12:00pm 12.5 1.0 8.6 77 1.9 WSW 59 74 32 40 1011.1 1011.1 0.0
20/11:30am 12.2 1.8 7.9 75 2.1 W 52 74 28 40 1010.7 1010.7 0.0
20/11:19am 12.3 1.6 8.2 76 2.0 WSW 54 72 29 39 1010.8 1010.8 0.0
20/11:00am 12.1 2.2 8.4 78 1.8 WSW 50 61 27 33 1010.7 1010.7 0.0
20/10:45am 13.2 4.5 8.5 73 2.4 W 44 63 24 34 1010.4 1010.4 0.0
20/10:30am 13.3 4.7 8.8 74 2.3 W 44 57 24 31 1010.4 1010.4 0.0
20/10:13am 12.7 3.5 8.0 73 2.3 W 46 69 25 37 1010.2 1010.2 0.0
20/10:00am 12.1 2.9 7.8 75 2.1 W 46 59 25 32 1010.1 1010.1 0.0
20/09:30am 11.3 1.3 7.8 79 1.7 W 50 72 27 39 1009.8 1009.8 0.0
20/09:27am 11.1 1.4 7.6 79 1.7 W 48 72 26 39 1009.8 1009.8 0.0
20/09:07am 11.1 4.3 7.8 80 1.6 WSW 33 52 18 28 1009.7 1009.7 0.0
20/09:00am 11.0 5.1 7.5 79 1.7 WSW 28 35 15 19 1009.6 1009.6 3.0

Latest Capital City Observations: Canberra | Sydney | Melbourne | Brisbane | Adelaide | Perth | Hobart | Darwin

Other formats

Comma delimited format used in spreadsheet applications
http://www.bom.gov.au/fwo/IDT60901/IDT60901.95967.axf

JavaScript Object Notation format (JSON) in row-major order
http://www.bom.gov.au/fwo/IDT60901/IDT60901.95967.json

Data quality

Most of these data are generated automatically and are frequently updated. Quality checks on data are not normally performed. It is possible for incorrect values to appear. Refer to information at About Latest Weather Observations and please check the disclaimer before using these data.